createdAt,value
2022-12-05T00:01:20.299Z,38.47
2022-12-05T00:03:49.751Z,39.50
2022-12-05T00:06:17.457Z,37.83
2022-12-05T00:08:45.520Z,38.07
2022-12-05T00:11:18.820Z,36.93
2022-12-05T00:13:46.701Z,37.20
2022-12-05T00:16:16.825Z,37.53
2022-12-05T00:18:44.067Z,36.83
2022-12-05T00:21:19.735Z,35.37
2022-12-05T00:23:46.968Z,36.60
2022-12-05T00:26:14.301Z,35.30
2022-12-05T00:28:41.760Z,35.07
2022-12-05T00:31:16.331Z,35.33
2022-12-05T00:33:44.511Z,33.80
2022-12-05T00:36:18.351Z,37.37
2022-12-05T00:38:45.708Z,34.30
2022-12-05T00:41:15.828Z,36.17
2022-12-05T00:43:43.594Z,36.27
2022-12-05T00:46:19.749Z,36.73
2022-12-05T00:48:47.596Z,35.53
2022-12-05T00:51:23.126Z,35.37
2022-12-05T00:53:50.800Z,37.00
2022-12-05T00:56:21.943Z,36.77
2022-12-05T00:58:50.806Z,38.13
2022-12-05T01:01:19.754Z,37.33
2022-12-05T01:03:48.146Z,38.53
2022-12-05T01:06:16.111Z,34.30
2022-12-05T01:08:43.800Z,37.80
2022-12-05T01:11:13.656Z,37.90
2022-12-05T01:13:41.023Z,37.60
2022-12-05T01:16:14.319Z,38.33
2022-12-05T01:18:41.634Z,36.90
2022-12-05T01:21:09.028Z,37.17
2022-12-05T01:23:36.206Z,37.50
2022-12-05T01:26:10.156Z,37.20
2022-12-05T01:28:37.422Z,36.13
2022-12-05T01:31:08.034Z,36.53
2022-12-05T01:33:35.746Z,37.17
2022-12-05T01:36:03.890Z,36.90
2022-12-05T01:38:31.073Z,34.77
2022-12-05T01:41:05.706Z,37.90
2022-12-05T01:43:33.168Z,38.53
2022-12-05T01:46:00.116Z,35.73
2022-12-05T01:48:32.151Z,36.47
2022-12-05T01:51:00.257Z,35.57
2022-12-05T01:53:29.714Z,33.37
2022-12-05T01:55:57.380Z,35.73
2022-12-05T01:58:31.201Z,34.20
2022-12-05T02:00:58.335Z,32.37
2022-12-05T02:03:25.563Z,35.30
2022-12-05T02:05:56.758Z,35.47
2022-12-05T02:08:24.432Z,35.00
2022-12-05T02:10:55.507Z,33.30
2022-12-05T02:13:41.348Z,34.93
2022-12-05T02:16:27.569Z,35.57
2022-12-05T02:19:28.473Z,33.10
2022-12-05T02:22:13.612Z,34.80
2022-12-05T02:24:58.364Z,32.57
2022-12-05T02:27:41.371Z,31.33
2022-12-05T02:30:19.288Z,32.97
2022-12-05T02:33:14.275Z,34.07
2022-12-05T02:35:55.656Z,32.83
2022-12-05T02:38:45.473Z,32.30
2022-12-05T02:41:41.952Z,32.57
2022-12-05T02:44:18.629Z,31.00
2022-12-05T02:46:48.919Z,33.30
2022-12-05T02:49:25.308Z,34.00
2022-12-05T02:51:57.007Z,33.13
2022-12-05T02:54:29.844Z,32.20
2022-12-05T02:56:59.215Z,33.27
2022-12-05T02:59:26.352Z,33.87
2022-12-05T03:01:53.745Z,34.63
2022-12-05T03:04:24.746Z,32.70
2022-12-05T03:06:58.323Z,34.37
2022-12-05T03:09:48.733Z,33.07
2022-12-05T03:12:25.513Z,31.07
2022-12-05T03:15:03.886Z,33.03
2022-12-05T03:17:39.327Z,32.73
2022-12-05T03:20:19.225Z,34.50
2022-12-05T03:23:00.655Z,31.43
2022-12-05T03:25:40.497Z,33.20
2022-12-05T03:28:19.296Z,31.20
2022-12-05T03:30:48.961Z,31.80
2022-12-05T03:33:23.770Z,30.27
2022-12-05T03:36:01.215Z,32.10
2022-12-05T03:38:35.213Z,30.87
2022-12-05T03:41:10.040Z,31.07
2022-12-05T03:43:50.329Z,30.10
2022-12-05T03:46:32.413Z,30.40
2022-12-05T03:49:21.357Z,29.47
2022-12-05T03:52:04.388Z,28.60
2022-12-05T03:54:36.502Z,31.13
2022-12-05T03:57:19.288Z,29.80
2022-12-05T04:00:13.931Z,31.13
2022-12-05T04:03:04.560Z,30.40
2022-12-05T04:05:51.924Z,32.00
2022-12-05T04:08:27.438Z,28.83
2022-12-05T04:10:59.596Z,29.70
2022-12-05T04:13:33.254Z,30.47
2022-12-05T04:16:26.076Z,30.53
2022-12-05T04:19:12.254Z,29.97
2022-12-05T04:21:45.642Z,30.30
2022-12-05T04:25:00.543Z,32.63
2022-12-05T04:27:38.110Z,33.10
2022-12-05T04:30:20.786Z,33.83
2022-12-05T04:32:56.757Z,31.63
2022-12-05T04:35:30.863Z,31.33
2022-12-05T04:38:07.803Z,31.53
2022-12-05T04:40:41.898Z,31.13
2022-12-05T04:43:10.584Z,31.13
2022-12-05T04:45:40.832Z,29.53
2022-12-05T04:48:13.933Z,31.53
2022-12-05T04:50:42.637Z,30.77
2022-12-05T04:53:12.150Z,30.03
2022-12-05T04:55:44.419Z,29.83
2022-12-05T04:58:16.146Z,30.03
2022-12-05T05:00:56.356Z,31.53
2022-12-05T05:03:41.923Z,31.80
2022-12-05T05:06:12.011Z,31.37
2022-12-05T05:08:49.268Z,28.83
2022-12-05T05:11:23.871Z,29.10
2022-12-05T05:13:52.099Z,28.33
2022-12-05T05:16:28.547Z,29.90
2022-12-05T05:18:56.179Z,30.17
2022-12-05T05:21:34.197Z,29.60
2022-12-05T05:24:02.358Z,31.83
2022-12-05T05:26:31.308Z,30.97
2022-12-05T05:28:59.077Z,29.37
2022-12-05T05:31:26.537Z,31.70
2022-12-05T05:33:55.891Z,31.03
2022-12-05T05:36:25.633Z,31.30
2022-12-05T05:38:55.284Z,31.77
2022-12-05T05:41:25.372Z,30.70
2022-12-05T05:43:53.156Z,28.77
2022-12-05T05:46:23.003Z,31.27
2022-12-05T05:48:50.570Z,29.33
2022-12-05T05:51:18.817Z,31.60
2022-12-05T05:53:46.520Z,31.20
2022-12-05T05:56:21.141Z,31.17
2022-12-05T05:58:55.143Z,31.57
2022-12-05T06:01:22.643Z,30.37
2022-12-05T06:03:53.538Z,31.10
2022-12-05T06:06:21.101Z,32.57
2022-12-05T06:08:48.582Z,31.30
2022-12-05T06:11:26.380Z,33.27
2022-12-05T06:14:01.069Z,32.23
2022-12-05T06:16:30.085Z,31.70
2022-12-05T06:18:58.381Z,31.63
2022-12-05T06:21:25.726Z,31.13
2022-12-05T06:23:53.954Z,31.93
2022-12-05T06:26:22.578Z,30.43
2022-12-05T06:28:50.157Z,31.20
2022-12-05T06:31:20.161Z,32.57
2022-12-05T06:33:48.021Z,31.87
2022-12-05T06:36:18.101Z,31.00
2022-12-05T06:38:45.434Z,32.60
2022-12-05T06:41:16.500Z,32.50
2022-12-05T06:43:44.059Z,32.83
2022-12-05T06:46:13.283Z,33.37
2022-12-05T06:48:40.544Z,32.30
2022-12-05T06:51:10.714Z,32.87
2022-12-05T06:53:38.567Z,32.53
2022-12-05T06:56:13.734Z,31.30
2022-12-05T06:58:42.729Z,34.87
2022-12-05T07:01:36.737Z,32.13
2022-12-05T07:04:05.777Z,32.53
2022-12-05T07:06:34.574Z,31.93
2022-12-05T07:09:02.453Z,31.43
2022-12-05T07:11:29.462Z,35.57
2022-12-05T07:13:56.733Z,31.43
2022-12-05T07:16:23.982Z,32.20
2022-12-05T07:18:51.429Z,33.87
2022-12-05T07:21:20.284Z,32.87
2022-12-05T07:23:50.082Z,32.57
2022-12-05T07:26:20.141Z,34.27
2022-12-05T07:28:48.469Z,34.83
2022-12-05T07:31:22.705Z,34.70
2022-12-05T07:33:50.305Z,34.47
2022-12-05T07:36:20.356Z,40.47
2022-12-05T07:38:47.967Z,34.20
2022-12-05T07:41:24.518Z,36.03
2022-12-05T07:43:52.727Z,32.80
2022-12-05T07:46:20.137Z,34.83
2022-12-05T07:48:48.397Z,33.87
2022-12-05T07:51:15.358Z,35.23
2022-12-05T07:53:44.346Z,34.87
2022-12-05T07:56:16.878Z,34.33
2022-12-05T07:58:45.953Z,33.23
2022-12-05T08:01:16.305Z,36.57
2022-12-05T08:03:44.107Z,32.40
2022-12-05T08:06:14.745Z,33.20
2022-12-05T08:08:42.330Z,32.67
2022-12-05T08:11:15.287Z,33.33
2022-12-05T08:13:43.411Z,33.37
2022-12-05T08:16:13.228Z,31.17
2022-12-05T08:18:40.714Z,36.90
2022-12-05T08:21:14.058Z,35.33
2022-12-05T08:23:42.331Z,29.87
2022-12-05T08:26:21.549Z,31.50
2022-12-05T08:29:04.571Z,32.07
2022-12-05T08:31:34.518Z,32.53
2022-12-05T08:34:02.018Z,32.40
2022-12-05T08:36:30.902Z,32.20
2022-12-05T08:39:00.546Z,29.70
2022-12-05T08:41:31.274Z,31.87
2022-12-05T08:44:03.150Z,31.73
2022-12-05T08:46:35.857Z,32.17
2022-12-05T08:49:04.630Z,32.37
2022-12-05T08:51:31.981Z,32.30
2022-12-05T08:53:59.401Z,32.60
2022-12-05T08:56:27.541Z,29.90
2022-12-05T08:59:01.418Z,35.07
2022-12-05T09:01:33.302Z,33.30
2022-12-05T09:04:02.436Z,34.03
2022-12-05T09:06:29.987Z,34.53
2022-12-05T09:08:59.992Z,37.17
2022-12-05T09:11:31.351Z,32.00
2022-12-05T09:13:59.837Z,33.50
2022-12-05T09:16:35.172Z,34.20
2022-12-05T09:19:04.468Z,33.23
2022-12-05T09:21:32.168Z,33.03
2022-12-05T09:24:00.599Z,32.93
2022-12-05T09:26:30.007Z,31.67
2022-12-05T09:28:57.909Z,32.20
2022-12-05T09:31:27.244Z,31.33
2022-12-05T09:33:55.293Z,31.27
2022-12-05T09:36:24.972Z,33.23
2022-12-05T09:38:53.404Z,32.27
2022-12-05T09:41:57.470Z,31.00
2022-12-05T09:44:37.141Z,30.00
2022-12-05T09:47:32.772Z,32.70
2022-12-05T09:50:12.761Z,35.17
2022-12-05T09:52:46.665Z,31.30
2022-12-05T09:55:19.378Z,29.80
2022-12-05T09:57:53.092Z,41.50
2022-12-05T10:00:20.752Z,30.30
2022-12-05T10:03:11.927Z,29.23
2022-12-05T10:06:17.312Z,31.80
2022-12-05T10:09:05.936Z,30.47
2022-12-05T10:11:39.239Z,34.17
2022-12-05T10:14:15.776Z,37.73
2022-12-05T10:17:03.067Z,37.10
2022-12-05T10:19:38.584Z,33.20
2022-12-05T10:22:20.435Z,31.57
2022-12-05T10:24:52.078Z,29.57
2022-12-05T10:27:22.100Z,32.10
2022-12-05T10:30:01.551Z,29.87
2022-12-05T10:32:48.022Z,27.00
2022-12-05T10:35:18.288Z,30.90
2022-12-05T10:37:54.479Z,30.93
2022-12-05T10:40:22.254Z,27.37
2022-12-05T10:42:50.587Z,27.80
2022-12-05T10:45:22.901Z,27.70
2022-12-05T10:47:55.265Z,29.70
2022-12-05T10:50:24.440Z,28.97
2022-12-05T10:52:53.527Z,28.27
2022-12-05T10:55:21.021Z,27.63
2022-12-05T10:57:52.190Z,31.70
2022-12-05T11:00:25.267Z,30.87
2022-12-05T11:02:53.308Z,30.67
2022-12-05T11:05:29.896Z,28.93
2022-12-05T11:07:59.202Z,29.60
2022-12-05T11:10:32.363Z,30.53
2022-12-05T11:13:00.474Z,37.23
2022-12-05T11:15:29.678Z,28.70
2022-12-05T11:18:17.052Z,28.10
2022-12-05T11:20:44.030Z,27.50
2022-12-05T11:23:27.305Z,29.00
2022-12-05T11:25:56.041Z,27.93
2022-12-05T11:28:31.285Z,28.70
2022-12-05T11:31:04.780Z,28.90
2022-12-05T11:33:35.357Z,31.40
2022-12-05T11:36:20.788Z,27.27
2022-12-05T11:38:48.391Z,26.23
2022-12-05T11:41:55.448Z,29.73
2022-12-05T11:44:43.280Z,26.30
2022-12-05T11:47:44.351Z,27.53
2022-12-05T11:50:26.829Z,28.63
2022-12-05T11:53:24.949Z,26.63
2022-12-05T11:56:06.563Z,26.27
2022-12-05T11:58:57.616Z,27.37
2022-12-05T12:01:31.774Z,27.17
2022-12-05T12:04:27.032Z,27.80
2022-12-05T12:07:00.201Z,28.60
2022-12-05T12:09:51.641Z,27.23
2022-12-05T12:12:21.527Z,30.27
2022-12-05T12:14:57.703Z,29.40
2022-12-05T12:17:40.257Z,30.67
2022-12-05T12:20:42.747Z,30.20
2022-12-05T12:23:23.328Z,31.40
2022-12-05T12:26:08.678Z,27.33
2022-12-05T12:29:04.054Z,28.67
2022-12-05T12:31:56.096Z,27.47
2022-12-05T12:34:36.782Z,29.40
2022-12-05T12:37:28.755Z,28.33
2022-12-05T12:40:22.894Z,29.23
2022-12-05T12:43:07.923Z,27.60
2022-12-05T12:45:45.987Z,28.53
2022-12-05T12:48:35.648Z,29.77
2022-12-05T12:51:03.504Z,28.43
2022-12-05T12:54:04.648Z,28.10
2022-12-05T12:56:43.228Z,27.73
2022-12-05T12:59:22.509Z,28.47
2022-12-05T13:02:00.965Z,28.83
2022-12-05T13:04:31.125Z,28.33
2022-12-05T13:07:09.650Z,28.77
2022-12-05T13:09:48.684Z,29.63
2022-12-05T13:12:25.466Z,31.17
2022-12-05T13:15:14.922Z,34.93
2022-12-05T13:17:45.644Z,35.67
2022-12-05T13:20:22.920Z,30.33
2022-12-05T13:22:52.313Z,32.03
2022-12-05T13:25:24.769Z,33.77
2022-12-05T13:27:58.183Z,36.97
2022-12-05T13:30:28.256Z,47.00
2022-12-05T13:32:58.211Z,40.00
2022-12-05T13:35:57.811Z,36.07
2022-12-05T13:38:49.487Z,30.37
2022-12-05T13:41:35.727Z,32.10
2022-12-05T13:44:12.394Z,32.83
2022-12-05T13:46:42.373Z,34.93
2022-12-05T13:49:26.643Z,33.60
2022-12-05T13:51:53.896Z,33.57
2022-12-05T13:54:28.419Z,32.07
2022-12-05T13:57:07.301Z,37.57
2022-12-05T13:59:58.129Z,32.33
2022-12-05T14:02:43.823Z,32.40
2022-12-05T14:05:18.935Z,32.50
2022-12-05T14:07:47.247Z,33.73
2022-12-05T14:10:22.163Z,29.87
2022-12-05T14:12:59.503Z,33.93
2022-12-05T14:15:38.715Z,31.10
2022-12-05T14:18:33.503Z,32.83
2022-12-05T14:21:19.159Z,30.47
2022-12-05T14:23:54.855Z,32.20
2022-12-05T14:26:44.618Z,33.37
2022-12-05T14:29:22.621Z,31.33
2022-12-05T14:32:11.575Z,34.17
2022-12-05T14:34:52.574Z,33.47
2022-12-05T14:37:33.482Z,33.77
2022-12-05T14:40:03.527Z,32.83
2022-12-05T14:43:16.856Z,33.40
2022-12-05T14:45:59.616Z,34.90
2022-12-05T14:48:36.552Z,36.93
2022-12-05T14:51:32.809Z,34.43
2022-12-05T14:54:06.364Z,38.60
2022-12-05T14:56:41.654Z,39.07
2022-12-05T14:59:23.114Z,35.07
2022-12-05T15:01:54.659Z,38.87
2022-12-05T15:04:40.468Z,34.13
2022-12-05T15:07:19.565Z,34.07
2022-12-05T15:09:49.657Z,38.30
2022-12-05T15:12:29.491Z,38.43
2022-12-05T15:15:13.605Z,37.37
2022-12-05T15:17:46.564Z,36.97
2022-12-05T15:20:23.373Z,39.00
2022-12-05T15:22:50.508Z,38.17
2022-12-05T15:25:27.853Z,36.17
2022-12-05T15:27:57.392Z,37.20
2022-12-05T15:30:25.639Z,39.70
2022-12-05T15:32:59.074Z,38.50
2022-12-05T15:35:31.797Z,38.50
2022-12-05T15:38:25.476Z,37.83
2022-12-05T15:40:54.414Z,41.20
2022-12-05T15:43:39.559Z,40.93
2022-12-05T15:46:24.304Z,39.97
2022-12-05T15:48:56.696Z,39.87
2022-12-05T15:51:35.690Z,42.37
2022-12-05T15:54:11.889Z,39.60
2022-12-05T15:56:46.183Z,40.70
2022-12-05T15:59:40.134Z,41.87
2022-12-05T16:02:21.254Z,41.90
2022-12-05T16:04:58.266Z,41.83
2022-12-05T16:07:29.699Z,37.30
2022-12-05T16:10:02.864Z,38.53
2022-12-05T16:12:41.154Z,46.57
2022-12-05T16:15:14.916Z,49.17
2022-12-05T16:17:53.600Z,41.73
2022-12-05T16:20:24.560Z,41.67
2022-12-05T16:22:55.293Z,58.60
2022-12-05T16:25:37.032Z,58.77
2022-12-05T16:28:07.498Z,59.87
2022-12-05T16:30:36.111Z,64.63
2022-12-05T16:33:05.603Z,60.23
2022-12-05T16:35:39.449Z,75.07
2022-12-05T16:38:29.807Z,60.80
2022-12-05T16:41:02.413Z,46.47
2022-12-05T16:43:32.675Z,48.13
2022-12-05T16:46:13.080Z,45.97
2022-12-05T16:49:21.240Z,45.07
2022-12-05T16:52:01.553Z,43.80
2022-12-05T16:54:29.157Z,44.00
2022-12-05T16:56:57.062Z,45.67
2022-12-05T16:59:32.096Z,48.63
2022-12-05T17:01:59.690Z,46.37
2022-12-05T17:04:27.068Z,41.97
2022-12-05T17:06:54.110Z,43.70
2022-12-05T17:09:21.418Z,46.90
2022-12-05T17:11:50.929Z,48.43
2022-12-05T17:14:19.346Z,49.07
2022-12-05T17:16:46.516Z,43.03
2022-12-05T17:19:13.996Z,46.57
2022-12-05T17:21:42.677Z,60.70
2022-12-05T17:24:16.417Z,57.83
2022-12-05T17:26:44.081Z,67.90
2022-12-05T17:29:11.628Z,58.57
2022-12-05T17:31:39.066Z,53.37
2022-12-05T17:34:15.984Z,62.03
2022-12-05T17:36:44.187Z,56.23
2022-12-05T17:39:12.078Z,50.60
2022-12-05T17:41:39.539Z,49.73
2022-12-05T17:44:07.525Z,49.47
2022-12-05T17:46:34.518Z,48.87
2022-12-05T17:49:01.720Z,41.37
2022-12-05T17:51:28.981Z,43.80
2022-12-05T17:53:56.334Z,43.03
2022-12-05T17:56:23.353Z,42.50
2022-12-05T17:58:50.826Z,40.60
2022-12-05T18:01:20.280Z,41.47
2022-12-05T18:03:48.386Z,39.87
2022-12-05T18:06:16.125Z,42.00
2022-12-05T18:08:45.207Z,42.90
2022-12-05T18:11:14.522Z,43.10
2022-12-05T18:13:41.926Z,43.50
2022-12-05T18:16:09.201Z,46.53
2022-12-05T18:18:36.484Z,50.30
2022-12-05T18:21:13.412Z,51.00
2022-12-05T18:23:41.617Z,54.17
2022-12-05T18:26:10.405Z,49.00
2022-12-05T18:28:39.230Z,46.93
2022-12-05T18:31:08.972Z,45.83
2022-12-05T18:33:39.361Z,49.87
2022-12-05T18:36:11.978Z,53.27
2022-12-05T18:38:39.340Z,50.63
2022-12-05T18:41:06.661Z,51.97
2022-12-05T18:43:34.853Z,53.53
2022-12-05T18:46:04.468Z,47.17
2022-12-05T18:48:44.634Z,51.50
2022-12-05T18:51:17.486Z,60.20
2022-12-05T18:53:51.831Z,60.20
2022-12-05T18:56:23.472Z,62.53
2022-12-05T18:59:01.941Z,63.47
2022-12-05T19:01:35.583Z,62.20
2022-12-05T19:04:05.506Z,48.83
2022-12-05T19:06:36.144Z,49.00
2022-12-05T19:09:07.785Z,54.30
2022-12-05T19:11:34.970Z,58.60
2022-12-05T19:14:04.550Z,51.00
2022-12-05T19:16:34.103Z,54.10
2022-12-05T19:19:04.489Z,62.13
2022-12-05T19:21:33.444Z,49.63
2022-12-05T19:24:02.358Z,52.03
2022-12-05T19:26:29.568Z,50.07
2022-12-05T19:28:57.654Z,49.57
2022-12-05T19:31:26.689Z,54.47
2022-12-05T19:33:56.276Z,47.03
2022-12-05T19:36:37.926Z,44.23
2022-12-05T19:39:19.882Z,48.17
2022-12-05T19:41:47.065Z,49.90
2022-12-05T19:44:14.504Z,52.57
2022-12-05T19:46:42.091Z,54.33
2022-12-05T19:49:14.568Z,48.30
2022-12-05T19:51:41.757Z,48.30
2022-12-05T19:54:11.794Z,49.30
2022-12-05T19:56:39.436Z,48.13
2022-12-05T19:59:07.242Z,47.67
2022-12-05T20:01:40.321Z,48.27
2022-12-05T20:04:13.781Z,46.67
2022-12-05T20:06:58.922Z,48.23
2022-12-05T20:09:26.445Z,45.03
2022-12-05T20:11:55.630Z,46.47
2022-12-05T20:14:25.209Z,47.77
2022-12-05T20:16:53.211Z,45.90
2022-12-05T20:19:20.479Z,46.47
2022-12-05T20:21:47.409Z,47.53
2022-12-05T20:24:14.623Z,49.30
2022-12-05T20:26:43.600Z,50.23
2022-12-05T20:29:11.295Z,47.07
2022-12-05T20:31:42.801Z,46.43
2022-12-05T20:34:13.498Z,47.03
2022-12-05T20:36:41.235Z,49.33
2022-12-05T20:39:13.100Z,46.83
2022-12-05T20:41:40.180Z,48.90
2022-12-05T20:44:08.830Z,46.63
2022-12-05T20:46:36.908Z,46.70
2022-12-05T20:49:04.317Z,46.03
2022-12-05T20:51:33.190Z,48.63
2022-12-05T20:54:03.208Z,50.30
2022-12-05T20:56:32.360Z,48.87
2022-12-05T20:59:04.448Z,48.07
2022-12-05T21:01:34.018Z,47.20
2022-12-05T21:04:02.592Z,46.13
2022-12-05T21:06:32.781Z,49.37
2022-12-05T21:09:01.264Z,50.57
2022-12-05T21:11:29.735Z,48.07
2022-12-05T21:14:00.450Z,51.13
2022-12-05T21:16:28.398Z,51.50
2022-12-05T21:18:56.370Z,50.67
2022-12-05T21:21:25.710Z,51.43
2022-12-05T21:23:58.914Z,50.03
2022-12-05T21:26:27.970Z,49.87
2022-12-05T21:28:56.013Z,49.40
2022-12-05T21:31:26.113Z,48.77
2022-12-05T21:33:56.935Z,49.83
2022-12-05T21:36:25.704Z,50.27
2022-12-05T21:38:56.344Z,49.30
2022-12-05T21:41:24.918Z,52.27
2022-12-05T21:43:55.269Z,49.23
2022-12-05T21:46:24.795Z,49.87
2022-12-05T21:48:52.706Z,50.27
2022-12-05T21:51:20.659Z,53.00
2022-12-05T21:53:47.937Z,55.37
2022-12-05T21:56:16.796Z,52.93
2022-12-05T21:58:46.269Z,49.23
2022-12-05T22:01:17.792Z,48.77
2022-12-05T22:03:45.773Z,49.13
2022-12-05T22:06:15.322Z,51.57
2022-12-05T22:08:43.543Z,53.33
2022-12-05T22:11:19.634Z,50.30
2022-12-05T22:13:48.916Z,54.37
2022-12-05T22:16:17.267Z,51.93
2022-12-05T22:18:44.836Z,51.33
2022-12-05T22:21:19.946Z,53.77
2022-12-05T22:23:48.561Z,53.03
2022-12-05T22:26:21.242Z,52.33
2022-12-05T22:28:53.196Z,56.53
2022-12-05T22:31:21.054Z,54.30
2022-12-05T22:33:48.544Z,56.87
2022-12-05T22:36:17.516Z,50.77
2022-12-05T22:38:47.309Z,54.57
2022-12-05T22:41:20.105Z,50.47
2022-12-05T22:43:49.034Z,52.10
2022-12-05T22:46:18.331Z,53.37
2022-12-05T22:48:46.759Z,51.00
2022-12-05T22:51:14.337Z,50.47
2022-12-05T22:53:42.474Z,52.17
2022-12-05T22:56:14.727Z,53.73
2022-12-05T22:58:43.533Z,56.23
2022-12-05T23:01:20.848Z,64.37
2022-12-05T23:03:50.108Z,59.77
2022-12-05T23:06:17.990Z,57.40
2022-12-05T23:08:50.624Z,60.10
2022-12-05T23:11:19.408Z,58.03
2022-12-05T23:13:48.257Z,57.23
2022-12-05T23:16:15.256Z,53.37
2022-12-05T23:18:49.557Z,55.33
2022-12-05T23:21:18.083Z,57.00
2022-12-05T23:23:46.399Z,53.10
2022-12-05T23:26:14.262Z,57.63
2022-12-05T23:28:41.593Z,58.80
2022-12-05T23:31:10.486Z,55.23
2022-12-05T23:33:38.455Z,60.70
2022-12-05T23:36:06.207Z,59.43
2022-12-05T23:38:34.714Z,58.97
2022-12-05T23:41:06.433Z,56.30
2022-12-05T23:43:35.542Z,54.83
2022-12-05T23:46:03.776Z,55.83
2022-12-05T23:48:31.958Z,52.70
2022-12-05T23:51:05.039Z,57.63
2022-12-05T23:53:34.601Z,56.37
2022-12-05T23:56:08.345Z,57.03
2022-12-05T23:58:35.984Z,55.17
